Pagrindinis puslapis
METAR-TAF:

METAR-TAF

Oro uostai :

Foz do Iguasu, Parana, Brazilija

platuma: 25-31S, ilguma: 054-35W, Aukštis: 180 m

Dabartinis oras

Ataskaita buvo paskelbta 59 minutes, ne 06:00 UTC
Vėjas 2 kt iš Šiaurės Vakarų
Temperatūra 12°C
Drėgmė 100%
Slėgis 1020 hPa
Matomumas: 7000 m
Su prošvaistėmis ne aukštis 1300 ft
Su prošvaistėmis ne aukštis 2000 ft

METAR: SBFI 270600Z 31002KT 7000 BKN013 BKN020 12/12 Q1020

Laikas: 03:59 (06:59 UTC)

Prognozė

Ataskaita buvo paskelbta 3 valandos ir 59 minutes, ne 03:00 UTC
Prognozė galioja nuo 27 metu 06 UTC su 28 metu 06 UTC
Vėjas 5 kt iš Vakarų/Pietvakarių
Matomumas: 8000 m
Su prošvaistėmis ne aukštis 1800 ft
Tapsmas
nuo 27 metu 11 UTC su 27 metu 14 UTC
Vėjas 5 kt iš Pietų
Matomumas 10 km arba daugiau
Išsisklaidę debesys ne aukštis 2500 ft
Tapsmas
nuo 28 metu 00 UTC su 28 metu 01 UTC
Matomumas 10 km arba daugiau
nėra debesų žemiau 1500 m ir nėra kamuolinių lietaus debesų

TAF: SBFI 270300Z 2706/2806 25005KT 8000 BKN018 TX15/2718Z TN10/2806Z BECMG 2711/2714 19005KT 9999 SCT025 BECMG 2800/2801 CAVOK RMK PFM

Orai ataskaitas ir orų prognozės (METAR, TAF).

turimą stotys yra geltonos ir raudonos taškus žemėlapyje.

Perkelti pele per norėdami pamatyti stoties vardą.

Tada spustelėkite, norėdami matyti oro stebėjimo ir prognozės.

Norėdami pakeisti žemėlapį: spustelėkite ant žalios mygtukų su juodo kryžiaus žemyn,; žalią mygtuką su brūkšneliu, jei norite nutolinti; arba žalių rodyklių gretimoms žemėlapius.


METAR-TAF: